Terminal Aerodrome Forecast
Issued by NWS

Home | Current Version | Previous Version | Graphics & Text | Print | Product List | Glossary On
Versions: 1 2 3 4 5 6 7 8 9 10 11 12 13 14 15 16 17 18 19 20
000
FTUS45 KGGW 101811 AAA
TAFOLF
TAF AMD
KOLF 101811Z 1018/1118 08015G25KT 4SM -SN OVC045
      TEMPO 1018/1021 2SM -SN BKN025
     FM102200 08010KT 3SM -SN OVC015
     FM110000 07010KT 3/4SM -SN OVC009
     FM110500 07009KT 1SM -SN OVC009
     FM110600 05005KT 2SM -SN OVC007
     FM110800 35005KT 3SM -SN BKN010
     FM110900 26004KT P6SM BKN015=

USA.gov is the U.S. government's official web portal to all federal, state and local government web resources and services.